sensor_id;sensor_type;location;lat;lon;timestamp;temperature;humidity
20233;DHT22;37438;55.674;13.074;2023-03-01T00:01:10;3.30;99.90
20233;DHT22;37438;55.674;13.074;2023-03-01T00:04:15;3.40;99.90
20233;DHT22;37438;55.674;13.074;2023-03-01T00:07:20;3.40;99.90
20233;DHT22;37438;55.674;13.074;2023-03-01T00:10:25;3.50;99.90
20233;DHT22;37438;55.674;13.074;2023-03-01T00:13:31;3.30;99.90
20233;DHT22;37438;55.674;13.074;2023-03-01T00:16:40;3.20;99.90
20233;DHT22;37438;55.674;13.074;2023-03-01T00:19:45;3.20;99.90
20233;DHT22;37438;55.674;13.074;2023-03-01T00:22:50;3.10;99.90
20233;DHT22;37438;55.674;13.074;2023-03-01T00:25:54;3.00;99.90
20233;DHT22;37438;55.674;13.074;2023-03-01T00:28:59;3.20;99.90
20233;DHT22;37438;55.674;13.074;2023-03-01T00:32:04;3.10;99.90
20233;DHT22;37438;55.674;13.074;2023-03-01T00:35:08;3.00;99.90
20233;DHT22;37438;55.674;13.074;2023-03-01T00:38:13;2.80;99.90
20233;DHT22;37438;55.674;13.074;2023-03-01T00:41:18;2.80;99.90
20233;DHT22;37438;55.674;13.074;2023-03-01T00:44:23;2.80;99.90
20233;DHT22;37438;55.674;13.074;2023-03-01T00:47:29;2.70;99.90
20233;DHT22;37438;55.674;13.074;2023-03-01T00:50:33;2.60;99.90
20233;DHT22;37438;55.674;13.074;2023-03-01T00:53:39;2.60;99.90
20233;DHT22;37438;55.674;13.074;2023-03-01T00:56:44;2.50;99.90
20233;DHT22;37438;55.674;13.074;2023-03-01T00:59:48;2.40;99.90
20233;DHT22;37438;55.674;13.074;2023-03-01T01:02:53;2.50;99.90
20233;DHT22;37438;55.674;13.074;2023-03-01T01:05:58;2.40;99.90
20233;DHT22;37438;55.674;13.074;2023-03-01T01:09:04;2.40;99.90
20233;DHT22;37438;55.674;13.074;2023-03-01T01:12:09;2.40;99.90
20233;DHT22;37438;55.674;13.074;2023-03-01T01:15:13;2.20;99.90
20233;DHT22;37438;55.674;13.074;2023-03-01T01:18:20;2.20;99.90
20233;DHT22;37438;55.674;13.074;2023-03-01T01:21:25;2.80;99.90
20233;DHT22;37438;55.674;13.074;2023-03-01T01:24:30;2.80;99.90
20233;DHT22;37438;55.674;13.074;2023-03-01T01:27:34;2.40;99.90
20233;DHT22;37438;55.674;13.074;2023-03-01T01:30:38;2.20;99.90
20233;DHT22;37438;55.674;13.074;2023-03-01T01:33:44;2.40;99.90
20233;DHT22;37438;55.674;13.074;2023-03-01T01:36:50;2.40;99.90
20233;DHT22;37438;55.674;13.074;2023-03-01T01:39:54;2.20;99.90
20233;DHT22;37438;55.674;13.074;2023-03-01T01:42:59;2.00;99.90
20233;DHT22;37438;55.674;13.074;2023-03-01T01:49:47;2.00;99.90
20233;DHT22;37438;55.674;13.074;2023-03-01T01:52:53;2.20;99.90
20233;DHT22;37438;55.674;13.074;2023-03-01T01:56:00;2.70;99.90
20233;DHT22;37438;55.674;13.074;2023-03-01T01:59:06;2.60;99.90
20233;DHT22;37438;55.674;13.074;2023-03-01T02:02:10;2.20;99.90
20233;DHT22;37438;55.674;13.074;2023-03-01T02:08:42;1.70;99.90
20233;DHT22;37438;55.674;13.074;2023-03-01T02:11:48;1.60;99.90
20233;DHT22;37438;55.674;13.074;2023-03-01T02:14:53;1.40;99.90
20233;DHT22;37438;55.674;13.074;2023-03-01T02:17:57;1.50;99.90
20233;DHT22;37438;55.674;13.074;2023-03-01T02:21:10;1.40;99.90
20233;DHT22;37438;55.674;13.074;2023-03-01T02:24:31;1.40;99.90
20233;DHT22;37438;55.674;13.074;2023-03-01T02:28:29;1.30;99.90
20233;DHT22;37438;55.674;13.074;2023-03-01T02:31:18;1.50;99.90
20233;DHT22;37438;55.674;13.074;2023-03-01T02:34:42;1.50;99.90
20233;DHT22;37438;55.674;13.074;2023-03-01T02:37:48;1.20;99.90
20233;DHT22;37438;55.674;13.074;2023-03-01T02:40:54;1.30;99.90
20233;DHT22;37438;55.674;13.074;2023-03-01T02:44:02;1.30;99.90
20233;DHT22;37438;55.674;13.074;2023-03-01T02:47:07;1.30;99.90
20233;DHT22;37438;55.674;13.074;2023-03-01T02:50:44;1.10;99.90
20233;DHT22;37438;55.674;13.074;2023-03-01T02:57:01;1.10;99.90
20233;DHT22;37438;55.674;13.074;2023-03-01T03:00:12;1.00;99.90
20233;DHT22;37438;55.674;13.074;2023-03-01T03:03:23;0.80;99.90
20233;DHT22;37438;55.674;13.074;2023-03-01T03:06:28;0.70;99.90
20233;DHT22;37438;55.674;13.074;2023-03-01T03:09:34;0.80;99.90
20233;DHT22;37438;55.674;13.074;2023-03-01T03:12:39;0.90;99.90
20233;DHT22;37438;55.674;13.074;2023-03-01T03:15:44;0.80;99.90
20233;DHT22;37438;55.674;13.074;2023-03-01T03:18:48;0.70;99.90
20233;DHT22;37438;55.674;13.074;2023-03-01T03:21:53;0.70;99.90
20233;DHT22;37438;55.674;13.074;2023-03-01T03:24:57;0.70;99.90
20233;DHT22;37438;55.674;13.074;2023-03-01T03:28:03;0.80;99.90
20233;DHT22;37438;55.674;13.074;2023-03-01T03:31:13;0.80;99.90
20233;DHT22;37438;55.674;13.074;2023-03-01T03:34:18;0.60;99.90
20233;DHT22;37438;55.674;13.074;2023-03-01T03:37:22;0.70;99.90
20233;DHT22;37438;55.674;13.074;2023-03-01T03:40:51;0.70;99.90
20233;DHT22;37438;55.674;13.074;2023-03-01T03:43:56;0.80;99.90
20233;DHT22;37438;55.674;13.074;2023-03-01T03:47:00;0.90;99.90
20233;DHT22;37438;55.674;13.074;2023-03-01T03:50:04;0.80;99.90
20233;DHT22;37438;55.674;13.074;2023-03-01T03:53:12;0.50;99.90
20233;DHT22;37438;55.674;13.074;2023-03-01T03:56:16;0.50;99.90
20233;DHT22;37438;55.674;13.074;2023-03-01T03:59:20;0.50;99.90
20233;DHT22;37438;55.674;13.074;2023-03-01T04:02:25;0.40;99.90
20233;DHT22;37438;55.674;13.074;2023-03-01T04:05:30;0.40;99.90
20233;DHT22;37438;55.674;13.074;2023-03-01T04:08:34;0.30;99.90
20233;DHT22;37438;55.674;13.074;2023-03-01T04:11:38;0.30;99.90
20233;DHT22;37438;55.674;13.074;2023-03-01T04:14:43;0.40;99.90
20233;DHT22;37438;55.674;13.074;2023-03-01T04:17:47;0.40;99.90
20233;DHT22;37438;55.674;13.074;2023-03-01T04:20:52;0.20;99.90
20233;DHT22;37438;55.674;13.074;2023-03-01T04:23:59;0.20;99.90
20233;DHT22;37438;55.674;13.074;2023-03-01T04:27:03;0.20;99.90
20233;DHT22;37438;55.674;13.074;2023-03-01T04:30:09;0.40;99.90
20233;DHT22;37438;55.674;13.074;2023-03-01T04:33:14;0.10;99.90
20233;DHT22;37438;55.674;13.074;2023-03-01T04:36:20;0.20;99.90
20233;DHT22;37438;55.674;13.074;2023-03-01T04:39:25;0.20;99.90
20233;DHT22;37438;55.674;13.074;2023-03-01T04:42:30;0.10;99.90
20233;DHT22;37438;55.674;13.074;2023-03-01T04:45:34;0.00;99.90
20233;DHT22;37438;55.674;13.074;2023-03-01T04:48:40;0.10;99.90
20233;DHT22;37438;55.674;13.074;2023-03-01T04:51:44;0.00;99.90
20233;DHT22;37438;55.674;13.074;2023-03-01T04:54:48;-0.10;99.90
20233;DHT22;37438;55.674;13.074;2023-03-01T04:57:53;0.10;99.90
20233;DHT22;37438;55.674;13.074;2023-03-01T05:00:58;-0.10;99.90
20233;DHT22;37438;55.674;13.074;2023-03-01T05:04:02;-0.10;99.90
20233;DHT22;37438;55.674;13.074;2023-03-01T05:07:09;-0.10;99.90
20233;DHT22;37438;55.674;13.074;2023-03-01T05:10:13;0.00;99.90
20233;DHT22;37438;55.674;13.074;2023-03-01T05:13:19;0.00;99.90
20233;DHT22;37438;55.674;13.074;2023-03-01T05:16:27;-0.10;99.90
20233;DHT22;37438;55.674;13.074;2023-03-01T05:19:32;0.10;99.90
20233;DHT22;37438;55.674;13.074;2023-03-01T05:22:37;0.00;99.90
20233;DHT22;37438;55.674;13.074;2023-03-01T05:25:42;0.00;99.90
20233;DHT22;37438;55.674;13.074;2023-03-01T05:28:46;0.10;99.90
20233;DHT22;37438;55.674;13.074;2023-03-01T05:31:55;0.20;99.90
20233;DHT22;37438;55.674;13.074;2023-03-01T05:35:00;0.20;99.90
20233;DHT22;37438;55.674;13.074;2023-03-01T05:38:04;0.30;99.90
20233;DHT22;37438;55.674;13.074;2023-03-01T05:41:14;0.20;99.90
20233;DHT22;37438;55.674;13.074;2023-03-01T05:44:19;0.40;99.90
20233;DHT22;37438;55.674;13.074;2023-03-01T05:47:24;0.40;99.90
20233;DHT22;37438;55.674;13.074;2023-03-01T05:50:29;0.40;99.90
20233;DHT22;37438;55.674;13.074;2023-03-01T05:53:36;0.50;99.90
20233;DHT22;37438;55.674;13.074;2023-03-01T05:56:40;0.40;99.90
20233;DHT22;37438;55.674;13.074;2023-03-01T05:59:45;0.40;99.90
20233;DHT22;37438;55.674;13.074;2023-03-01T06:02:49;0.40;99.90
20233;DHT22;37438;55.674;13.074;2023-03-01T06:05:57;0.60;99.90
20233;DHT22;37438;55.674;13.074;2023-03-01T06:09:01;0.50;99.90
20233;DHT22;37438;55.674;13.074;2023-03-01T06:12:06;0.60;99.90
20233;DHT22;37438;55.674;13.074;2023-03-01T06:15:13;0.70;99.90
20233;DHT22;37438;55.674;13.074;2023-03-01T06:18:18;0.80;99.90
20233;DHT22;37438;55.674;13.074;2023-03-01T06:21:22;0.70;99.90
20233;DHT22;37438;55.674;13.074;2023-03-01T06:24:27;0.90;99.90
20233;DHT22;37438;55.674;13.074;2023-03-01T06:27:33;1.00;99.90
20233;DHT22;37438;55.674;13.074;2023-03-01T06:30:37;1.10;99.90
20233;DHT22;37438;55.674;13.074;2023-03-01T06:33:42;1.00;99.90
20233;DHT22;37438;55.674;13.074;2023-03-01T06:36:48;1.00;99.90
20233;DHT22;37438;55.674;13.074;2023-03-01T06:39:53;1.20;99.90
20233;DHT22;37438;55.674;13.074;2023-03-01T06:42:57;1.20;99.90
20233;DHT22;37438;55.674;13.074;2023-03-01T06:46:06;1.20;99.90
20233;DHT22;37438;55.674;13.074;2023-03-01T06:49:11;1.30;99.90
20233;DHT22;37438;55.674;13.074;2023-03-01T06:52:15;1.40;99.90
20233;DHT22;37438;55.674;13.074;2023-03-01T06:55:20;1.40;99.90
20233;DHT22;37438;55.674;13.074;2023-03-01T06:58:24;1.40;99.90
20233;DHT22;37438;55.674;13.074;2023-03-01T07:01:29;1.70;99.90
20233;DHT22;37438;55.674;13.074;2023-03-01T07:04:34;1.80;99.90
20233;DHT22;37438;55.674;13.074;2023-03-01T07:07:39;1.80;99.90
20233;DHT22;37438;55.674;13.074;2023-03-01T07:10:44;2.00;99.90
20233;DHT22;37438;55.674;13.074;2023-03-01T07:13:49;2.10;99.90
20233;DHT22;37438;55.674;13.074;2023-03-01T07:16:54;2.00;99.90
20233;DHT22;37438;55.674;13.074;2023-03-01T07:19:58;2.30;99.90
20233;DHT22;37438;55.674;13.074;2023-03-01T07:23:02;2.20;99.90
20233;DHT22;37438;55.674;13.074;2023-03-01T07:26:07;2.50;99.90
20233;DHT22;37438;55.674;13.074;2023-03-01T07:29:12;2.40;99.90
20233;DHT22;37438;55.674;13.074;2023-03-01T07:32:16;2.50;99.90
20233;DHT22;37438;55.674;13.074;2023-03-01T07:35:22;2.60;99.90
20233;DHT22;37438;55.674;13.074;2023-03-01T07:38:26;2.70;99.90
20233;DHT22;37438;55.674;13.074;2023-03-01T07:41:31;2.70;99.90
20233;DHT22;37438;55.674;13.074;2023-03-01T07:44:36;2.80;99.90
20233;DHT22;37438;55.674;13.074;2023-03-01T07:47:41;3.00;99.90
20233;DHT22;37438;55.674;13.074;2023-03-01T07:50:45;3.10;99.90
20233;DHT22;37438;55.674;13.074;2023-03-01T07:53:50;3.20;99.90
20233;DHT22;37438;55.674;13.074;2023-03-01T07:56:54;3.10;99.90
20233;DHT22;37438;55.674;13.074;2023-03-01T08:00:00;3.20;99.90
20233;DHT22;37438;55.674;13.074;2023-03-01T08:03:15;3.30;99.90
20233;DHT22;37438;55.674;13.074;2023-03-01T08:06:18;3.20;99.90
20233;DHT22;37438;55.674;13.074;2023-03-01T08:09:24;3.40;99.90
20233;DHT22;37438;55.674;13.074;2023-03-01T08:12:28;3.90;99.90
20233;DHT22;37438;55.674;13.074;2023-03-01T08:15:32;3.90;99.90
20233;DHT22;37438;55.674;13.074;2023-03-01T08:18:37;3.90;99.90
20233;DHT22;37438;55.674;13.074;2023-03-01T08:21:42;4.10;99.90
20233;DHT22;37438;55.674;13.074;2023-03-01T08:24:46;4.30;99.90
20233;DHT22;37438;55.674;13.074;2023-03-01T08:27:51;4.30;99.90
20233;DHT22;37438;55.674;13.074;2023-03-01T08:30:55;4.50;99.90
20233;DHT22;37438;55.674;13.074;2023-03-01T08:34:02;4.60;99.90
20233;DHT22;37438;55.674;13.074;2023-03-01T08:37:06;4.50;99.90
20233;DHT22;37438;55.674;13.074;2023-03-01T08:40:11;4.60;99.90
20233;DHT22;37438;55.674;13.074;2023-03-01T08:43:17;4.70;99.90
20233;DHT22;37438;55.674;13.074;2023-03-01T08:46:21;5.40;99.90
20233;DHT22;37438;55.674;13.074;2023-03-01T08:49:26;5.40;99.90
20233;DHT22;37438;55.674;13.074;2023-03-01T08:52:32;5.20;99.90
20233;DHT22;37438;55.674;13.074;2023-03-01T08:55:37;6.50;99.90
20233;DHT22;37438;55.674;13.074;2023-03-01T08:58:44;6.40;99.90
20233;DHT22;37438;55.674;13.074;2023-03-01T09:01:49;6.90;99.90
20233;DHT22;37438;55.674;13.074;2023-03-01T09:04:54;6.90;99.90
20233;DHT22;37438;55.674;13.074;2023-03-01T09:07:59;7.40;99.90
20233;DHT22;37438;55.674;13.074;2023-03-01T09:11:05;7.90;99.90
20233;DHT22;37438;55.674;13.074;2023-03-01T09:14:10;8.50;99.90
20233;DHT22;37438;55.674;13.074;2023-03-01T09:17:15;8.30;99.90
20233;DHT22;37438;55.674;13.074;2023-03-01T09:20:20;8.70;99.90
20233;DHT22;37438;55.674;13.074;2023-03-01T09:23:24;9.40;99.90
20233;DHT22;37438;55.674;13.074;2023-03-01T09:26:28;9.40;99.90
20233;DHT22;37438;55.674;13.074;2023-03-01T09:29:34;9.00;99.90
20233;DHT22;37438;55.674;13.074;2023-03-01T09:32:39;9.90;99.90
20233;DHT22;37438;55.674;13.074;2023-03-01T09:35:46;9.60;99.90
20233;DHT22;37438;55.674;13.074;2023-03-01T09:38:52;9.90;99.90
20233;DHT22;37438;55.674;13.074;2023-03-01T09:42:02;9.90;99.90
20233;DHT22;37438;55.674;13.074;2023-03-01T09:45:21;9.10;99.90
20233;DHT22;37438;55.674;13.074;2023-03-01T09:48:33;8.10;99.90
20233;DHT22;37438;55.674;13.074;2023-03-01T09:51:42;7.90;99.90
20233;DHT22;37438;55.674;13.074;2023-03-01T09:54:50;7.80;99.90
20233;DHT22;37438;55.674;13.074;2023-03-01T10:04:48;7.60;99.90
20233;DHT22;37438;55.674;13.074;2023-03-01T10:11:00;7.10;99.90
20233;DHT22;37438;55.674;13.074;2023-03-01T10:14:25;6.50;99.90
20233;DHT22;37438;55.674;13.074;2023-03-01T10:18:13;6.40;99.90
20233;DHT22;37438;55.674;13.074;2023-03-01T10:21:18;6.60;99.90
20233;DHT22;37438;55.674;13.074;2023-03-01T10:24:23;6.80;99.90
20233;DHT22;37438;55.674;13.074;2023-03-01T10:27:53;6.20;99.90
20233;DHT22;37438;55.674;13.074;2023-03-01T10:30:58;6.40;99.90
20233;DHT22;37438;55.674;13.074;2023-03-01T10:37:25;6.80;99.90
20233;DHT22;37438;55.674;13.074;2023-03-01T10:40:32;7.10;99.90
20233;DHT22;37438;55.674;13.074;2023-03-01T10:43:49;7.40;86.50
20233;DHT22;37438;55.674;13.074;2023-03-01T10:46:59;7.50;86.70
20233;DHT22;37438;55.674;13.074;2023-03-01T10:50:08;8.90;20.30
20233;DHT22;37438;55.674;13.074;2023-03-01T10:53:25;8.90;1.00
20233;DHT22;37438;55.674;13.074;2023-03-01T10:56:48;8.00;99.90
20233;DHT22;37438;55.674;13.074;2023-03-01T11:00:23;6.10;75.10
20233;DHT22;37438;55.674;13.074;2023-03-01T11:03:31;5.40;99.90
20233;DHT22;37438;55.674;13.074;2023-03-01T11:06:38;6.30;99.90
20233;DHT22;37438;55.674;13.074;2023-03-01T11:09:42;6.60;99.90
20233;DHT22;37438;55.674;13.074;2023-03-01T11:12:47;6.70;99.90
20233;DHT22;37438;55.674;13.074;2023-03-01T11:16:07;6.60;99.90
20233;DHT22;37438;55.674;13.074;2023-03-01T11:19:20;6.80;99.90
20233;DHT22;37438;55.674;13.074;2023-03-01T11:22:24;7.10;99.90
20233;DHT22;37438;55.674;13.074;2023-03-01T11:25:33;7.90;99.90
20233;DHT22;37438;55.674;13.074;2023-03-01T11:28:40;8.20;99.90
20233;DHT22;37438;55.674;13.074;2023-03-01T11:31:46;7.00;99.90
20233;DHT22;37438;55.674;13.074;2023-03-01T11:35:18;7.80;99.90
20233;DHT22;37438;55.674;13.074;2023-03-01T11:38:26;7.70;99.90
20233;DHT22;37438;55.674;13.074;2023-03-01T11:41:34;7.20;99.90
20233;DHT22;37438;55.674;13.074;2023-03-01T11:44:41;8.20;99.90
20233;DHT22;37438;55.674;13.074;2023-03-01T11:58:38;8.60;99.90
20233;DHT22;37438;55.674;13.074;2023-03-01T12:22:28;10.10;99.90
20233;DHT22;37438;55.674;13.074;2023-03-01T12:25:45;10.60;1.00
20233;DHT22;37438;55.674;13.074;2023-03-01T12:29:02;12.10;1.00
20233;DHT22;37438;55.674;13.074;2023-03-01T12:32:47;12.40;99.90
20233;DHT22;37438;55.674;13.074;2023-03-01T12:36:22;12.10;1.00
20233;DHT22;37438;55.674;13.074;2023-03-01T12:50:47;14.40;1.00
20233;DHT22;37438;55.674;13.074;2023-03-01T12:53:36;14.70;99.90
20233;DHT22;37438;55.674;13.074;2023-03-01T12:56:40;14.10;99.90
20233;DHT22;37438;55.674;13.074;2023-03-01T13:00:21;13.40;99.90
20233;DHT22;37438;55.674;13.074;2023-03-01T13:07:11;15.90;99.90
20233;DHT22;37438;55.674;13.074;2023-03-01T13:10:34;14.10;99.90
20233;DHT22;37438;55.674;13.074;2023-03-01T13:13:43;13.40;99.90
20233;DHT22;37438;55.674;13.074;2023-03-01T13:16:48;12.80;1.00
20233;DHT22;37438;55.674;13.074;2023-03-01T13:19:59;12.50;99.90
20233;DHT22;37438;55.674;13.074;2023-03-01T13:26:23;12.80;1.00
20233;DHT22;37438;55.674;13.074;2023-03-01T13:29:27;11.70;99.90
20233;DHT22;37438;55.674;13.074;2023-03-01T13:32:33;11.90;19.90
20233;DHT22;37438;55.674;13.074;2023-03-01T13:35:47;12.60;65.90
20233;DHT22;37438;55.674;13.074;2023-03-01T13:38:57;12.70;1.00
20233;DHT22;37438;55.674;13.074;2023-03-01T13:42:02;13.30;99.90
20233;DHT22;37438;55.674;13.074;2023-03-01T13:45:40;14.20;99.90
20233;DHT22;37438;55.674;13.074;2023-03-01T13:48:54;16.70;49.00
20233;DHT22;37438;55.674;13.074;2023-03-01T13:52:02;17.90;1.00
20233;DHT22;37438;55.674;13.074;2023-03-01T13:55:36;17.10;99.90
20233;DHT22;37438;55.674;13.074;2023-03-01T13:59:01;17.00;99.90
20233;DHT22;37438;55.674;13.074;2023-03-01T14:02:12;15.80;99.90
20233;DHT22;37438;55.674;13.074;2023-03-01T14:05:16;15.90;99.90
20233;DHT22;37438;55.674;13.074;2023-03-01T14:08:24;16.10;99.90
20233;DHT22;37438;55.674;13.074;2023-03-01T14:18:09;17.70;99.90
20233;DHT22;37438;55.674;13.074;2023-03-01T14:21:16;17.40;99.90
20233;DHT22;37438;55.674;13.074;2023-03-01T14:24:22;18.00;99.90
20233;DHT22;37438;55.674;13.074;2023-03-01T14:27:36;17.80;99.90
20233;DHT22;37438;55.674;13.074;2023-03-01T14:30:51;17.80;99.90
20233;DHT22;37438;55.674;13.074;2023-03-01T14:33:56;16.60;99.90
20233;DHT22;37438;55.674;13.074;2023-03-01T14:37:25;17.60;99.90
20233;DHT22;37438;55.674;13.074;2023-03-01T14:40:35;16.10;99.90
20233;DHT22;37438;55.674;13.074;2023-03-01T14:43:47;16.50;99.90
20233;DHT22;37438;55.674;13.074;2023-03-01T14:46:55;15.70;99.90
20233;DHT22;37438;55.674;13.074;2023-03-01T14:53:27;16.60;99.90
20233;DHT22;37438;55.674;13.074;2023-03-01T14:56:44;17.30;99.90
20233;DHT22;37438;55.674;13.074;2023-03-01T14:59:50;17.60;99.90
20233;DHT22;37438;55.674;13.074;2023-03-01T15:03:08;17.50;99.90
20233;DHT22;37438;55.674;13.074;2023-03-01T15:06:20;18.30;99.90
20233;DHT22;37438;55.674;13.074;2023-03-01T15:09:26;18.80;99.90
20233;DHT22;37438;55.674;13.074;2023-03-01T15:15:43;15.40;99.90
20233;DHT22;37438;55.674;13.074;2023-03-01T15:18:58;14.00;99.90
20233;DHT22;37438;55.674;13.074;2023-03-01T15:22:04;14.00;99.90
20233;DHT22;37438;55.674;13.074;2023-03-01T15:25:18;15.30;99.90
20233;DHT22;37438;55.674;13.074;2023-03-01T15:28:30;15.00;99.90
20233;DHT22;37438;55.674;13.074;2023-03-01T15:31:36;16.10;99.90
20233;DHT22;37438;55.674;13.074;2023-03-01T15:34:42;15.90;99.90
20233;DHT22;37438;55.674;13.074;2023-03-01T15:37:48;17.20;99.90
20233;DHT22;37438;55.674;13.074;2023-03-01T15:40:53;17.90;99.90
20233;DHT22;37438;55.674;13.074;2023-03-01T15:44:17;18.70;99.90
20233;DHT22;37438;55.674;13.074;2023-03-01T15:47:32;18.70;99.90
20233;DHT22;37438;55.674;13.074;2023-03-01T15:50:37;17.60;99.90
20233;DHT22;37438;55.674;13.074;2023-03-01T15:53:49;17.20;99.90
20233;DHT22;37438;55.674;13.074;2023-03-01T15:56:58;16.80;99.90
20233;DHT22;37438;55.674;13.074;2023-03-01T16:00:02;15.90;99.90
20233;DHT22;37438;55.674;13.074;2023-03-01T16:03:15;16.40;99.90
20233;DHT22;37438;55.674;13.074;2023-03-01T16:06:25;16.60;99.90
20233;DHT22;37438;55.674;13.074;2023-03-01T16:09:30;16.50;99.90
20233;DHT22;37438;55.674;13.074;2023-03-01T16:12:34;16.80;99.90
20233;DHT22;37438;55.674;13.074;2023-03-01T16:15:39;16.70;99.90
20233;DHT22;37438;55.674;13.074;2023-03-01T16:18:46;16.10;99.90
20233;DHT22;37438;55.674;13.074;2023-03-01T16:21:50;12.60;99.90
20233;DHT22;37438;55.674;13.074;2023-03-01T16:24:55;10.60;99.90
20233;DHT22;37438;55.674;13.074;2023-03-01T16:27:59;9.90;99.90
20233;DHT22;37438;55.674;13.074;2023-03-01T16:31:09;9.30;44.10
20233;DHT22;37438;55.674;13.074;2023-03-01T16:34:14;8.80;99.90
20233;DHT22;37438;55.674;13.074;2023-03-01T16:37:18;8.00;99.90
20233;DHT22;37438;55.674;13.074;2023-03-01T16:40:28;7.70;99.90
20233;DHT22;37438;55.674;13.074;2023-03-01T16:43:33;7.50;99.90
20233;DHT22;37438;55.674;13.074;2023-03-01T16:46:37;7.20;1.00
20233;DHT22;37438;55.674;13.074;2023-03-01T16:49:42;7.20;1.00
20233;DHT22;37438;55.674;13.074;2023-03-01T16:52:46;7.00;18.50
20233;DHT22;37438;55.674;13.074;2023-03-01T16:55:58;6.90;28.60
20233;DHT22;37438;55.674;13.074;2023-03-01T16:59:02;6.80;35.70
20233;DHT22;37438;55.674;13.074;2023-03-01T17:02:13;6.50;43.00
20233;DHT22;37438;55.674;13.074;2023-03-01T17:05:18;6.40;39.20
20233;DHT22;37438;55.674;13.074;2023-03-01T17:08:25;6.30;12.60
20233;DHT22;37438;55.674;13.074;2023-03-01T17:11:29;6.10;1.00
20233;DHT22;37438;55.674;13.074;2023-03-01T17:14:34;6.10;1.00
20233;DHT22;37438;55.674;13.074;2023-03-01T17:17:39;6.00;99.90
20233;DHT22;37438;55.674;13.074;2023-03-01T17:20:44;5.90;99.90
20233;DHT22;37438;55.674;13.074;2023-03-01T17:23:49;5.70;99.90
20233;DHT22;37438;55.674;13.074;2023-03-01T17:26:55;5.50;99.90
20233;DHT22;37438;55.674;13.074;2023-03-01T17:30:00;5.30;1.00
20233;DHT22;37438;55.674;13.074;2023-03-01T17:33:04;5.10;1.00
20233;DHT22;37438;55.674;13.074;2023-03-01T17:36:09;4.80;24.40
20233;DHT22;37438;55.674;13.074;2023-03-01T17:39:14;4.70;81.90
20233;DHT22;37438;55.674;13.074;2023-03-01T17:42:18;4.60;99.90
20233;DHT22;37438;55.674;13.074;2023-03-01T17:45:23;4.50;99.90
20233;DHT22;37438;55.674;13.074;2023-03-01T17:48:27;4.40;99.90
20233;DHT22;37438;55.674;13.074;2023-03-01T17:51:32;4.20;99.90
20233;DHT22;37438;55.674;13.074;2023-03-01T17:54:37;4.20;99.90
20233;DHT22;37438;55.674;13.074;2023-03-01T17:57:41;4.10;99.90
20233;DHT22;37438;55.674;13.074;2023-03-01T18:00:46;4.00;99.90
20233;DHT22;37438;55.674;13.074;2023-03-01T18:03:51;3.90;99.90
20233;DHT22;37438;55.674;13.074;2023-03-01T18:06:56;3.80;99.90
20233;DHT22;37438;55.674;13.074;2023-03-01T18:10:02;3.60;99.90
20233;DHT22;37438;55.674;13.074;2023-03-01T18:13:06;3.60;99.90
20233;DHT22;37438;55.674;13.074;2023-03-01T18:16:13;3.50;99.90
20233;DHT22;37438;55.674;13.074;2023-03-01T18:19:17;3.40;99.90
20233;DHT22;37438;55.674;13.074;2023-03-01T18:22:21;3.40;99.90
20233;DHT22;37438;55.674;13.074;2023-03-01T18:25:26;3.30;99.90
20233;DHT22;37438;55.674;13.074;2023-03-01T18:28:31;3.30;99.90
20233;DHT22;37438;55.674;13.074;2023-03-01T18:31:36;3.20;99.90
20233;DHT22;37438;55.674;13.074;2023-03-01T18:34:40;3.20;99.90
20233;DHT22;37438;55.674;13.074;2023-03-01T18:37:45;3.10;99.90
20233;DHT22;37438;55.674;13.074;2023-03-01T18:40:51;3.10;99.90
20233;DHT22;37438;55.674;13.074;2023-03-01T18:43:55;2.90;99.90
20233;DHT22;37438;55.674;13.074;2023-03-01T18:47:00;2.80;99.90
20233;DHT22;37438;55.674;13.074;2023-03-01T18:50:05;2.90;99.90
20233;DHT22;37438;55.674;13.074;2023-03-01T18:53:09;2.80;99.90
20233;DHT22;37438;55.674;13.074;2023-03-01T18:56:14;2.70;99.90
20233;DHT22;37438;55.674;13.074;2023-03-01T18:59:18;2.70;99.90
20233;DHT22;37438;55.674;13.074;2023-03-01T19:02:22;2.60;99.90
20233;DHT22;37438;55.674;13.074;2023-03-01T19:05:28;2.60;99.90
20233;DHT22;37438;55.674;13.074;2023-03-01T19:08:33;2.60;99.90
20233;DHT22;37438;55.674;13.074;2023-03-01T19:11:37;2.60;99.90
20233;DHT22;37438;55.674;13.074;2023-03-01T19:14:42;2.50;99.90
20233;DHT22;37438;55.674;13.074;2023-03-01T19:17:46;2.40;99.90
20233;DHT22;37438;55.674;13.074;2023-03-01T19:20:57;2.40;99.90
20233;DHT22;37438;55.674;13.074;2023-03-01T19:24:06;2.30;99.90
20233;DHT22;37438;55.674;13.074;2023-03-01T19:27:11;2.20;99.90
20233;DHT22;37438;55.674;13.074;2023-03-01T19:30:16;2.30;99.90
20233;DHT22;37438;55.674;13.074;2023-03-01T19:33:20;2.20;99.90
20233;DHT22;37438;55.674;13.074;2023-03-01T19:36:25;2.10;99.90
20233;DHT22;37438;55.674;13.074;2023-03-01T19:39:36;2.00;99.90
20233;DHT22;37438;55.674;13.074;2023-03-01T19:42:41;2.00;99.90
20233;DHT22;37438;55.674;13.074;2023-03-01T19:45:50;1.80;99.90
20233;DHT22;37438;55.674;13.074;2023-03-01T19:48:55;1.90;99.90
20233;DHT22;37438;55.674;13.074;2023-03-01T19:52:02;1.60;99.90
20233;DHT22;37438;55.674;13.074;2023-03-01T19:55:07;1.70;99.90
20233;DHT22;37438;55.674;13.074;2023-03-01T19:58:13;1.60;99.90
20233;DHT22;37438;55.674;13.074;2023-03-01T20:01:20;1.60;99.90
20233;DHT22;37438;55.674;13.074;2023-03-01T20:04:25;1.50;99.90
20233;DHT22;37438;55.674;13.074;2023-03-01T20:07:29;1.30;99.90
20233;DHT22;37438;55.674;13.074;2023-03-01T20:10:34;1.30;99.90
20233;DHT22;37438;55.674;13.074;2023-03-01T20:13:40;1.50;99.90
20233;DHT22;37438;55.674;13.074;2023-03-01T20:16:45;1.30;99.90
20233;DHT22;37438;55.674;13.074;2023-03-01T20:19:49;1.20;99.90
20233;DHT22;37438;55.674;13.074;2023-03-01T20:22:53;1.10;99.90
20233;DHT22;37438;55.674;13.074;2023-03-01T20:26:07;1.20;99.90
20233;DHT22;37438;55.674;13.074;2023-03-01T20:29:12;1.10;99.90
20233;DHT22;37438;55.674;13.074;2023-03-01T20:32:16;1.00;99.90
20233;DHT22;37438;55.674;13.074;2023-03-01T20:35:21;1.00;99.90
20233;DHT22;37438;55.674;13.074;2023-03-01T20:38:27;1.00;99.90
20233;DHT22;37438;55.674;13.074;2023-03-01T20:41:31;1.00;99.90
20233;DHT22;37438;55.674;13.074;2023-03-01T20:44:35;0.90;99.90
20233;DHT22;37438;55.674;13.074;2023-03-01T20:47:46;0.90;99.90
20233;DHT22;37438;55.674;13.074;2023-03-01T20:50:50;0.80;99.90
20233;DHT22;37438;55.674;13.074;2023-03-01T20:53:55;0.80;99.90
20233;DHT22;37438;55.674;13.074;2023-03-01T20:56:59;0.60;99.90
20233;DHT22;37438;55.674;13.074;2023-03-01T21:00:05;0.60;99.90
20233;DHT22;37438;55.674;13.074;2023-03-01T21:03:10;0.60;99.90
20233;DHT22;37438;55.674;13.074;2023-03-01T21:06:14;0.50;99.90